KAPF/APF METAR and TAF weather

Enter ICAO airport designator
Station Type Date Time Source
KAPF METAR 2019/02/23 01:53 UTC NOAA

KAPF 230153Z 00000KT 10SM CLR 25/22 A3014 RMK AO2 SLP206 T02500217


Station Type Date Time Source
KAPF Decoded METAR 2019/02/23 01:53 UTC NOAA

NAPLES MUNICIPAL AIRPORT, FL, United States (KAPF) 26-09N 081-46W
Feb 22, 2019 - 08:53 PM EST / 2019.02.23 0153 UTC
Wind: Calm:0
Visibility: 10 mile(s):0
Sky conditions: clear
Temperature: 77.0 F (25.0 C)
Dew Point: 71.1 F (21.7 C)
Relative Humidity: 81%
Pressure (altimeter): 30.14 in. Hg (1020 hPa)
ob: KAPF 230153Z 00000KT 10SM CLR 25/22 A3014 RMK AO2 SLP206 T02500217
cycle: 2

Station Type Date Time Source
KAPF TAF 2019/02/23 03:39 UTC NOAA

TAF
AMD KAPF 230237Z 2303/2324 VRB03KT P6SM SKC
FM231400 13012KT P6SM SCT030
FM231800 20014KT P6SM FEW035


Example: see airport list